sensor_id;sensor_type;location;lat;lon;timestamp;temperature;humidity
40454;DHT22;26160;51.858;4.398;2022-08-21T00:00:17;16.50;99.90
40454;DHT22;26160;51.858;4.398;2022-08-21T00:02:47;16.50;99.90
40454;DHT22;26160;51.858;4.398;2022-08-21T00:05:13;16.50;99.90
40454;DHT22;26160;51.858;4.398;2022-08-21T00:07:39;16.40;99.90
40454;DHT22;26160;51.858;4.398;2022-08-21T00:10:05;16.40;99.90
40454;DHT22;26160;51.858;4.398;2022-08-21T00:12:31;16.40;99.90
40454;DHT22;26160;51.858;4.398;2022-08-21T00:14:58;16.40;99.90
40454;DHT22;26160;51.858;4.398;2022-08-21T00:17:23;16.40;99.90
40454;DHT22;26160;51.858;4.398;2022-08-21T00:19:49;16.30;99.90
40454;DHT22;26160;51.858;4.398;2022-08-21T00:22:16;16.30;99.90
40454;DHT22;26160;51.858;4.398;2022-08-21T00:24:43;16.30;99.90
40454;DHT22;26160;51.858;4.398;2022-08-21T00:27:08;16.30;99.90
40454;DHT22;26160;51.858;4.398;2022-08-21T00:29:34;16.40;99.90
40454;DHT22;26160;51.858;4.398;2022-08-21T00:32:00;16.30;99.90
40454;DHT22;26160;51.858;4.398;2022-08-21T00:34:26;16.30;99.90
40454;DHT22;26160;51.858;4.398;2022-08-21T00:36:52;16.30;99.90
40454;DHT22;26160;51.858;4.398;2022-08-21T00:39:18;16.30;99.90
40454;DHT22;26160;51.858;4.398;2022-08-21T00:41:44;16.30;99.90
40454;DHT22;26160;51.858;4.398;2022-08-21T00:44:11;16.30;99.90
40454;DHT22;26160;51.858;4.398;2022-08-21T00:46:37;16.30;99.90
40454;DHT22;26160;51.858;4.398;2022-08-21T00:49:04;16.30;99.90
40454;DHT22;26160;51.858;4.398;2022-08-21T00:51:50;16.30;99.90
40454;DHT22;26160;51.858;4.398;2022-08-21T00:54:18;16.30;99.90
40454;DHT22;26160;51.858;4.398;2022-08-21T00:56:45;16.30;99.90
40454;DHT22;26160;51.858;4.398;2022-08-21T00:59:12;16.20;99.90
40454;DHT22;26160;51.858;4.398;2022-08-21T01:01:38;16.20;99.90
40454;DHT22;26160;51.858;4.398;2022-08-21T01:04:04;16.20;99.90
40454;DHT22;26160;51.858;4.398;2022-08-21T01:06:30;16.10;99.90
40454;DHT22;26160;51.858;4.398;2022-08-21T01:08:56;16.10;99.90
40454;DHT22;26160;51.858;4.398;2022-08-21T01:11:22;16.10;99.90
40454;DHT22;26160;51.858;4.398;2022-08-21T01:13:48;16.10;99.90
40454;DHT22;26160;51.858;4.398;2022-08-21T01:16:15;16.00;99.90
40454;DHT22;26160;51.858;4.398;2022-08-21T01:18:43;16.00;99.90
40454;DHT22;26160;51.858;4.398;2022-08-21T01:21:11;16.00;99.90
40454;DHT22;26160;51.858;4.398;2022-08-21T01:23:38;16.00;99.90
40454;DHT22;26160;51.858;4.398;2022-08-21T01:26:04;15.90;99.90
40454;DHT22;26160;51.858;4.398;2022-08-21T01:28:31;15.90;99.90
40454;DHT22;26160;51.858;4.398;2022-08-21T01:30:58;15.90;99.90
40454;DHT22;26160;51.858;4.398;2022-08-21T01:33:26;15.90;99.90
40454;DHT22;26160;51.858;4.398;2022-08-21T01:35:52;15.90;99.90
40454;DHT22;26160;51.858;4.398;2022-08-21T01:38:18;15.90;99.90
40454;DHT22;26160;51.858;4.398;2022-08-21T01:40:44;15.90;99.90
40454;DHT22;26160;51.858;4.398;2022-08-21T01:43:10;15.90;99.90
40454;DHT22;26160;51.858;4.398;2022-08-21T01:45:36;15.90;99.90
40454;DHT22;26160;51.858;4.398;2022-08-21T01:48:02;15.80;99.90
40454;DHT22;26160;51.858;4.398;2022-08-21T01:50:28;15.90;99.90
40454;DHT22;26160;51.858;4.398;2022-08-21T01:52:54;15.80;99.90
40454;DHT22;26160;51.858;4.398;2022-08-21T01:55:22;15.80;99.90
40454;DHT22;26160;51.858;4.398;2022-08-21T01:57:48;15.80;99.90
40454;DHT22;26160;51.858;4.398;2022-08-21T02:00:17;15.80;99.90
40454;DHT22;26160;51.858;4.398;2022-08-21T02:02:43;15.80;99.90
40454;DHT22;26160;51.858;4.398;2022-08-21T02:05:10;15.70;99.90
40454;DHT22;26160;51.858;4.398;2022-08-21T02:07:40;15.70;99.90
40454;DHT22;26160;51.858;4.398;2022-08-21T02:10:07;15.60;99.90
40454;DHT22;26160;51.858;4.398;2022-08-21T02:12:34;15.60;99.90
40454;DHT22;26160;51.858;4.398;2022-08-21T02:14:59;15.60;99.90
40454;DHT22;26160;51.858;4.398;2022-08-21T02:17:26;15.60;99.90
40454;DHT22;26160;51.858;4.398;2022-08-21T02:19:58;15.60;99.90
40454;DHT22;26160;51.858;4.398;2022-08-21T02:22:24;15.50;99.90
40454;DHT22;26160;51.858;4.398;2022-08-21T02:24:50;15.50;99.90
40454;DHT22;26160;51.858;4.398;2022-08-21T02:27:15;15.50;99.90
40454;DHT22;26160;51.858;4.398;2022-08-21T02:29:41;15.50;99.90
40454;DHT22;26160;51.858;4.398;2022-08-21T02:32:07;15.50;99.90
40454;DHT22;26160;51.858;4.398;2022-08-21T02:34:33;15.50;99.90
40454;DHT22;26160;51.858;4.398;2022-08-21T02:36:59;15.50;99.90
40454;DHT22;26160;51.858;4.398;2022-08-21T02:39:25;15.40;99.90
40454;DHT22;26160;51.858;4.398;2022-08-21T02:41:51;15.50;99.90
40454;DHT22;26160;51.858;4.398;2022-08-21T02:44:17;15.50;99.90
40454;DHT22;26160;51.858;4.398;2022-08-21T02:46:43;15.50;99.90
40454;DHT22;26160;51.858;4.398;2022-08-21T02:49:09;15.50;99.90
40454;DHT22;26160;51.858;4.398;2022-08-21T02:51:35;15.50;99.90
40454;DHT22;26160;51.858;4.398;2022-08-21T02:54:01;15.50;99.90
40454;DHT22;26160;51.858;4.398;2022-08-21T02:56:27;15.40;99.90
40454;DHT22;26160;51.858;4.398;2022-08-21T02:58:53;15.40;99.90
40454;DHT22;26160;51.858;4.398;2022-08-21T03:01:19;15.40;99.90
40454;DHT22;26160;51.858;4.398;2022-08-21T03:03:46;15.40;99.90
40454;DHT22;26160;51.858;4.398;2022-08-21T03:06:13;15.30;99.90
40454;DHT22;26160;51.858;4.398;2022-08-21T03:08:39;15.30;99.90
40454;DHT22;26160;51.858;4.398;2022-08-21T03:11:06;15.30;99.90
40454;DHT22;26160;51.858;4.398;2022-08-21T03:13:33;15.30;99.90
40454;DHT22;26160;51.858;4.398;2022-08-21T03:15:59;15.30;99.90
40454;DHT22;26160;51.858;4.398;2022-08-21T03:18:25;15.20;99.90
40454;DHT22;26160;51.858;4.398;2022-08-21T03:20:51;15.20;99.90
40454;DHT22;26160;51.858;4.398;2022-08-21T03:23:17;15.30;99.90
40454;DHT22;26160;51.858;4.398;2022-08-21T03:25:43;15.30;99.90
40454;DHT22;26160;51.858;4.398;2022-08-21T03:28:14;15.30;99.90
40454;DHT22;26160;51.858;4.398;2022-08-21T03:30:40;15.30;99.90
40454;DHT22;26160;51.858;4.398;2022-08-21T03:33:06;15.40;99.90
40454;DHT22;26160;51.858;4.398;2022-08-21T03:35:32;15.30;99.90
40454;DHT22;26160;51.858;4.398;2022-08-21T03:37:58;15.30;99.90
40454;DHT22;26160;51.858;4.398;2022-08-21T03:40:24;15.40;99.90
40454;DHT22;26160;51.858;4.398;2022-08-21T03:42:51;15.40;99.90
40454;DHT22;26160;51.858;4.398;2022-08-21T03:45:17;15.40;99.90
40454;DHT22;26160;51.858;4.398;2022-08-21T03:48:17;15.50;99.90
40454;DHT22;26160;51.858;4.398;2022-08-21T03:50:37;15.50;99.90
40454;DHT22;26160;51.858;4.398;2022-08-21T03:53:03;15.40;99.90
40454;DHT22;26160;51.858;4.398;2022-08-21T03:55:29;15.50;99.90
40454;DHT22;26160;51.858;4.398;2022-08-21T03:57:55;15.50;99.90
40454;DHT22;26160;51.858;4.398;2022-08-21T04:00:22;15.50;99.90
40454;DHT22;26160;51.858;4.398;2022-08-21T04:02:48;15.50;99.90
40454;DHT22;26160;51.858;4.398;2022-08-21T04:05:16;15.50;99.90
40454;DHT22;26160;51.858;4.398;2022-08-21T04:07:53;15.50;99.90
40454;DHT22;26160;51.858;4.398;2022-08-21T04:10:19;15.50;99.90
40454;DHT22;26160;51.858;4.398;2022-08-21T04:12:45;15.40;99.90
40454;DHT22;26160;51.858;4.398;2022-08-21T04:15:11;15.40;99.90
40454;DHT22;26160;51.858;4.398;2022-08-21T04:17:39;15.40;99.90
40454;DHT22;26160;51.858;4.398;2022-08-21T04:20:05;15.40;99.90
40454;DHT22;26160;51.858;4.398;2022-08-21T04:22:31;15.40;99.90
40454;DHT22;26160;51.858;4.398;2022-08-21T04:24:57;15.40;99.90
40454;DHT22;26160;51.858;4.398;2022-08-21T04:27:23;15.40;99.90
40454;DHT22;26160;51.858;4.398;2022-08-21T04:29:49;15.40;99.90
40454;DHT22;26160;51.858;4.398;2022-08-21T04:32:21;15.40;99.90
40454;DHT22;26160;51.858;4.398;2022-08-21T04:34:47;15.30;99.90
40454;DHT22;26160;51.858;4.398;2022-08-21T04:37:13;15.30;99.90
40454;DHT22;26160;51.858;4.398;2022-08-21T04:39:41;15.30;99.90
40454;DHT22;26160;51.858;4.398;2022-08-21T04:42:07;15.30;99.90
40454;DHT22;26160;51.858;4.398;2022-08-21T04:44:34;15.30;99.90
40454;DHT22;26160;51.858;4.398;2022-08-21T04:47:00;15.20;99.90
40454;DHT22;26160;51.858;4.398;2022-08-21T04:49:26;15.30;99.90
40454;DHT22;26160;51.858;4.398;2022-08-21T04:51:52;15.30;99.90
40454;DHT22;26160;51.858;4.398;2022-08-21T04:54:21;15.30;99.90
40454;DHT22;26160;51.858;4.398;2022-08-21T04:56:49;15.30;99.90
40454;DHT22;26160;51.858;4.398;2022-08-21T04:59:22;15.30;99.90
40454;DHT22;26160;51.858;4.398;2022-08-21T05:01:48;15.30;99.90
40454;DHT22;26160;51.858;4.398;2022-08-21T05:04:16;15.40;99.90
40454;DHT22;26160;51.858;4.398;2022-08-21T05:06:44;15.40;99.90
40454;DHT22;26160;51.858;4.398;2022-08-21T05:09:12;15.40;99.90
40454;DHT22;26160;51.858;4.398;2022-08-21T05:11:38;15.40;99.90
40454;DHT22;26160;51.858;4.398;2022-08-21T05:14:05;15.40;99.90
40454;DHT22;26160;51.858;4.398;2022-08-21T05:16:31;15.40;99.90
40454;DHT22;26160;51.858;4.398;2022-08-21T05:18:57;15.50;99.90
40454;DHT22;26160;51.858;4.398;2022-08-21T05:21:23;15.50;99.90
40454;DHT22;26160;51.858;4.398;2022-08-21T05:23:49;15.50;99.90
40454;DHT22;26160;51.858;4.398;2022-08-21T05:26:14;15.50;99.90
40454;DHT22;26160;51.858;4.398;2022-08-21T05:28:40;15.50;99.90
40454;DHT22;26160;51.858;4.398;2022-08-21T05:31:06;15.60;99.90
40454;DHT22;26160;51.858;4.398;2022-08-21T05:33:32;15.60;99.90
40454;DHT22;26160;51.858;4.398;2022-08-21T05:35:58;15.60;99.90
40454;DHT22;26160;51.858;4.398;2022-08-21T05:38:24;15.70;99.90
40454;DHT22;26160;51.858;4.398;2022-08-21T05:40:52;15.70;99.90
40454;DHT22;26160;51.858;4.398;2022-08-21T05:43:18;15.70;99.90
40454;DHT22;26160;51.858;4.398;2022-08-21T05:45:44;15.80;99.90
40454;DHT22;26160;51.858;4.398;2022-08-21T05:48:15;15.80;99.90
40454;DHT22;26160;51.858;4.398;2022-08-21T05:50:42;15.80;99.90
40454;DHT22;26160;51.858;4.398;2022-08-21T05:53:08;15.90;99.90
40454;DHT22;26160;51.858;4.398;2022-08-21T05:55:35;15.90;99.90
40454;DHT22;26160;51.858;4.398;2022-08-21T05:58:03;16.00;99.90
40454;DHT22;26160;51.858;4.398;2022-08-21T06:00:29;16.10;99.90
40454;DHT22;26160;51.858;4.398;2022-08-21T06:02:55;16.20;99.90
40454;DHT22;26160;51.858;4.398;2022-08-21T06:05:21;16.20;99.90
40454;DHT22;26160;51.858;4.398;2022-08-21T06:07:46;16.30;99.90
40454;DHT22;26160;51.858;4.398;2022-08-21T06:10:12;16.30;99.90
40454;DHT22;26160;51.858;4.398;2022-08-21T06:12:38;16.40;99.90
40454;DHT22;26160;51.858;4.398;2022-08-21T06:17:25;16.50;99.90
40454;DHT22;26160;51.858;4.398;2022-08-21T06:19:55;16.70;99.90
40454;DHT22;26160;51.858;4.398;2022-08-21T06:22:21;16.70;99.90
40454;DHT22;26160;51.858;4.398;2022-08-21T06:24:48;16.70;99.90
40454;DHT22;26160;51.858;4.398;2022-08-21T06:27:14;16.80;99.90
40454;DHT22;26160;51.858;4.398;2022-08-21T06:29:41;16.90;99.90
40454;DHT22;26160;51.858;4.398;2022-08-21T06:32:11;16.90;99.90
40454;DHT22;26160;51.858;4.398;2022-08-21T06:34:41;17.00;99.90
40454;DHT22;26160;51.858;4.398;2022-08-21T06:37:08;17.10;99.90
40454;DHT22;26160;51.858;4.398;2022-08-21T06:39:34;17.10;99.90
40454;DHT22;26160;51.858;4.398;2022-08-21T06:42:00;17.20;99.90
40454;DHT22;26160;51.858;4.398;2022-08-21T06:44:27;17.30;99.90
40454;DHT22;26160;51.858;4.398;2022-08-21T06:46:53;17.30;99.90
40454;DHT22;26160;51.858;4.398;2022-08-21T06:49:19;17.40;99.90
40454;DHT22;26160;51.858;4.398;2022-08-21T06:51:45;17.40;99.90
40454;DHT22;26160;51.858;4.398;2022-08-21T06:54:11;17.60;99.90
40454;DHT22;26160;51.858;4.398;2022-08-21T06:56:37;17.60;99.90
40454;DHT22;26160;51.858;4.398;2022-08-21T06:59:05;17.60;99.90
40454;DHT22;26160;51.858;4.398;2022-08-21T07:01:31;17.70;99.90
40454;DHT22;26160;51.858;4.398;2022-08-21T07:03:58;17.70;99.90
40454;DHT22;26160;51.858;4.398;2022-08-21T07:06:24;17.80;99.90
40454;DHT22;26160;51.858;4.398;2022-08-21T07:08:50;17.90;99.90
40454;DHT22;26160;51.858;4.398;2022-08-21T07:11:22;18.00;99.90
40454;DHT22;26160;51.858;4.398;2022-08-21T07:13:49;18.10;99.90
40454;DHT22;26160;51.858;4.398;2022-08-21T07:16:22;18.20;99.90
40454;DHT22;26160;51.858;4.398;2022-08-21T07:18:48;18.40;99.90
40454;DHT22;26160;51.858;4.398;2022-08-21T07:21:15;18.60;99.90
40454;DHT22;26160;51.858;4.398;2022-08-21T07:23:47;18.90;99.90
40454;DHT22;26160;51.858;4.398;2022-08-21T07:26:15;19.30;99.90
40454;DHT22;26160;51.858;4.398;2022-08-21T07:28:44;19.60;99.90
40454;DHT22;26160;51.858;4.398;2022-08-21T07:31:13;19.90;99.90
40454;DHT22;26160;51.858;4.398;2022-08-21T07:33:40;20.10;99.90
40454;DHT22;26160;51.858;4.398;2022-08-21T07:36:07;20.40;99.90
40454;DHT22;26160;51.858;4.398;2022-08-21T07:38:35;20.60;99.90
40454;DHT22;26160;51.858;4.398;2022-08-21T07:41:02;20.50;99.90
40454;DHT22;26160;51.858;4.398;2022-08-21T07:43:31;20.50;99.90
40454;DHT22;26160;51.858;4.398;2022-08-21T07:45:57;20.50;99.90
40454;DHT22;26160;51.858;4.398;2022-08-21T07:48:24;20.50;99.90
40454;DHT22;26160;51.858;4.398;2022-08-21T07:50:50;20.50;99.90
40454;DHT22;26160;51.858;4.398;2022-08-21T07:53:17;20.70;99.90
40454;DHT22;26160;51.858;4.398;2022-08-21T07:55:43;20.90;99.90
40454;DHT22;26160;51.858;4.398;2022-08-21T07:58:09;20.90;99.90
40454;DHT22;26160;51.858;4.398;2022-08-21T08:00:35;21.20;99.90
40454;DHT22;26160;51.858;4.398;2022-08-21T08:03:01;21.30;99.90
40454;DHT22;26160;51.858;4.398;2022-08-21T08:05:29;21.20;99.90
40454;DHT22;26160;51.858;4.398;2022-08-21T08:07:56;21.30;99.90
40454;DHT22;26160;51.858;4.398;2022-08-21T08:10:23;21.80;99.90
40454;DHT22;26160;51.858;4.398;2022-08-21T08:12:50;22.00;99.90
40454;DHT22;26160;51.858;4.398;2022-08-21T08:15:22;22.30;99.90
40454;DHT22;26160;51.858;4.398;2022-08-21T08:17:52;22.60;99.90
40454;DHT22;26160;51.858;4.398;2022-08-21T08:20:19;22.30;99.90
40454;DHT22;26160;51.858;4.398;2022-08-21T08:22:45;22.00;99.90
40454;DHT22;26160;51.858;4.398;2022-08-21T08:25:13;22.10;99.90
40454;DHT22;26160;51.858;4.398;2022-08-21T08:27:40;22.30;99.90
40454;DHT22;26160;51.858;4.398;2022-08-21T08:30:08;22.40;99.90
40454;DHT22;26160;51.858;4.398;2022-08-21T08:32:35;22.60;99.90
40454;DHT22;26160;51.858;4.398;2022-08-21T08:35:03;22.60;99.90
40454;DHT22;26160;51.858;4.398;2022-08-21T08:37:31;22.40;99.90
40454;DHT22;26160;51.858;4.398;2022-08-21T08:39:58;22.20;99.90
40454;DHT22;26160;51.858;4.398;2022-08-21T08:42:35;22.00;99.90
40454;DHT22;26160;51.858;4.398;2022-08-21T08:45:21;22.10;99.90
40454;DHT22;26160;51.858;4.398;2022-08-21T08:47:55;22.50;99.90
40454;DHT22;26160;51.858;4.398;2022-08-21T08:50:52;22.70;99.90
40454;DHT22;26160;51.858;4.398;2022-08-21T08:53:23;22.90;99.90
40454;DHT22;26160;51.858;4.398;2022-08-21T08:55:53;23.20;99.90
40454;DHT22;26160;51.858;4.398;2022-08-21T09:00:52;23.00;99.90
40454;DHT22;26160;51.858;4.398;2022-08-21T09:03:19;22.90;99.90
40454;DHT22;26160;51.858;4.398;2022-08-21T09:09:31;23.10;99.90
40454;DHT22;26160;51.858;4.398;2022-08-21T09:11:48;22.80;99.90
40454;DHT22;26160;51.858;4.398;2022-08-21T09:19:56;22.70;99.90
40454;DHT22;26160;51.858;4.398;2022-08-21T09:27:34;22.60;99.90
40454;DHT22;26160;51.858;4.398;2022-08-21T09:30:04;22.70;99.90
40454;DHT22;26160;51.858;4.398;2022-08-21T09:32:32;22.90;99.90
40454;DHT22;26160;51.858;4.398;2022-08-21T09:37:47;23.70;99.90
40454;DHT22;26160;51.858;4.398;2022-08-21T09:40:42;24.10;99.90
40454;DHT22;26160;51.858;4.398;2022-08-21T09:45:35;23.50;99.90
40454;DHT22;26160;51.858;4.398;2022-08-21T09:48:26;23.00;99.90
40454;DHT22;26160;51.858;4.398;2022-08-21T09:50:53;22.90;99.90
40454;DHT22;26160;51.858;4.398;2022-08-21T09:53:25;22.90;99.90
40454;DHT22;26160;51.858;4.398;2022-08-21T09:55:54;23.30;99.90
40454;DHT22;26160;51.858;4.398;2022-08-21T09:58:44;23.60;99.90
40454;DHT22;26160;51.858;4.398;2022-08-21T10:01:24;23.30;99.90
40454;DHT22;26160;51.858;4.398;2022-08-21T10:04:27;22.80;99.90
40454;DHT22;26160;51.858;4.398;2022-08-21T10:06:53;22.40;99.90
40454;DHT22;26160;51.858;4.398;2022-08-21T10:09:21;22.60;99.90
40454;DHT22;26160;51.858;4.398;2022-08-21T10:12:13;23.10;99.90
40454;DHT22;26160;51.858;4.398;2022-08-21T10:14:59;23.40;99.90
40454;DHT22;26160;51.858;4.398;2022-08-21T10:20:29;23.90;99.90
40454;DHT22;26160;51.858;4.398;2022-08-21T10:25:57;24.50;99.90
40454;DHT22;26160;51.858;4.398;2022-08-21T10:31:25;24.40;99.90
40454;DHT22;26160;51.858;4.398;2022-08-21T10:34:15;24.30;99.90
40454;DHT22;26160;51.858;4.398;2022-08-21T10:39:35;25.10;99.90
40454;DHT22;26160;51.858;4.398;2022-08-21T10:47:34;25.20;99.90
40454;DHT22;26160;51.858;4.398;2022-08-21T10:55:32;24.90;99.90
40454;DHT22;26160;51.858;4.398;2022-08-21T10:58:04;25.20;99.90
40454;DHT22;26160;51.858;4.398;2022-08-21T11:00:41;25.30;99.90
40454;DHT22;26160;51.858;4.398;2022-08-21T11:03:13;25.30;99.90
40454;DHT22;26160;51.858;4.398;2022-08-21T11:05:51;25.70;99.90
40454;DHT22;26160;51.858;4.398;2022-08-21T11:08:26;25.80;99.90
40454;DHT22;26160;51.858;4.398;2022-08-21T11:11:20;25.50;99.90
40454;DHT22;26160;51.858;4.398;2022-08-21T11:13:54;25.20;99.90
40454;DHT22;26160;51.858;4.398;2022-08-21T11:19:35;25.30;99.90
40454;DHT22;26160;51.858;4.398;2022-08-21T11:22:11;25.00;99.90
40454;DHT22;26160;51.858;4.398;2022-08-21T11:30:24;24.80;99.90
40454;DHT22;26160;51.858;4.398;2022-08-21T11:35:50;24.70;99.90
40454;DHT22;26160;51.858;4.398;2022-08-21T11:38:41;25.00;99.90
40454;DHT22;26160;51.858;4.398;2022-08-21T11:41:32;25.40;99.90
40454;DHT22;26160;51.858;4.398;2022-08-21T11:44:29;25.70;99.90
40454;DHT22;26160;51.858;4.398;2022-08-21T11:52:40;25.90;99.90
40454;DHT22;26160;51.858;4.398;2022-08-21T11:58:15;25.90;99.90
40454;DHT22;26160;51.858;4.398;2022-08-21T12:00:47;26.00;99.90
40454;DHT22;26160;51.858;4.398;2022-08-21T12:03:28;25.60;99.90
40454;DHT22;26160;51.858;4.398;2022-08-21T12:05:58;25.10;99.90
40454;DHT22;26160;51.858;4.398;2022-08-21T12:08:32;24.70;99.90
40454;DHT22;26160;51.858;4.398;2022-08-21T12:11:08;25.20;99.90
40454;DHT22;26160;51.858;4.398;2022-08-21T12:13:40;25.30;99.90
40454;DHT22;26160;51.858;4.398;2022-08-21T12:19:13;25.20;99.90
40454;DHT22;26160;51.858;4.398;2022-08-21T12:27:26;25.40;99.90
40454;DHT22;26160;51.858;4.398;2022-08-21T12:29:59;25.40;99.90
40454;DHT22;26160;51.858;4.398;2022-08-21T12:32:28;25.60;99.90
40454;DHT22;26160;51.858;4.398;2022-08-21T12:35:16;25.90;99.90
40454;DHT22;26160;51.858;4.398;2022-08-21T12:37:47;25.70;99.90
40454;DHT22;26160;51.858;4.398;2022-08-21T12:40:41;25.00;99.90
40454;DHT22;26160;51.858;4.398;2022-08-21T12:43:15;25.20;99.90
40454;DHT22;26160;51.858;4.398;2022-08-21T12:45:46;25.10;99.90
40454;DHT22;26160;51.858;4.398;2022-08-21T12:50:48;25.70;99.90
40454;DHT22;26160;51.858;4.398;2022-08-21T12:55:47;26.60;99.90
40454;DHT22;26160;51.858;4.398;2022-08-21T12:58:20;25.90;99.90
40454;DHT22;26160;51.858;4.398;2022-08-21T13:01:18;25.50;99.90
40454;DHT22;26160;51.858;4.398;2022-08-21T13:03:43;25.30;99.90
40454;DHT22;26160;51.858;4.398;2022-08-21T13:06:14;25.60;99.90
40454;DHT22;26160;51.858;4.398;2022-08-21T13:08:43;25.80;99.90
40454;DHT22;26160;51.858;4.398;2022-08-21T13:11:10;25.60;99.90
40454;DHT22;26160;51.858;4.398;2022-08-21T13:13:39;25.40;99.90
40454;DHT22;26160;51.858;4.398;2022-08-21T13:16:07;25.20;99.90
40454;DHT22;26160;51.858;4.398;2022-08-21T13:18:52;25.00;99.90
40454;DHT22;26160;51.858;4.398;2022-08-21T13:21:19;24.70;99.90
40454;DHT22;26160;51.858;4.398;2022-08-21T13:23:46;24.50;99.90
40454;DHT22;26160;51.858;4.398;2022-08-21T13:26:21;24.40;99.90
40454;DHT22;26160;51.858;4.398;2022-08-21T13:28:49;24.20;99.90
40454;DHT22;26160;51.858;4.398;2022-08-21T13:31:24;24.10;99.90
40454;DHT22;26160;51.858;4.398;2022-08-21T13:33:53;24.00;99.90
40454;DHT22;26160;51.858;4.398;2022-08-21T13:36:25;23.80;99.90
40454;DHT22;26160;51.858;4.398;2022-08-21T13:38:53;23.70;99.90
40454;DHT22;26160;51.858;4.398;2022-08-21T13:41:26;23.60;99.90
40454;DHT22;26160;51.858;4.398;2022-08-21T13:44:20;23.60;99.90
40454;DHT22;26160;51.858;4.398;2022-08-21T13:46:48;23.60;99.90
40454;DHT22;26160;51.858;4.398;2022-08-21T13:49:18;23.60;99.90
40454;DHT22;26160;51.858;4.398;2022-08-21T13:51:45;23.40;99.90
40454;DHT22;26160;51.858;4.398;2022-08-21T13:54:27;23.60;99.90
40454;DHT22;26160;51.858;4.398;2022-08-21T13:56:54;23.50;99.90
40454;DHT22;26160;51.858;4.398;2022-08-21T13:59:32;23.80;99.90
40454;DHT22;26160;51.858;4.398;2022-08-21T14:02:08;23.70;99.90
40454;DHT22;26160;51.858;4.398;2022-08-21T14:04:54;23.70;99.90
40454;DHT22;26160;51.858;4.398;2022-08-21T14:07:34;23.80;99.90
40454;DHT22;26160;51.858;4.398;2022-08-21T14:10:07;23.90;99.90
40454;DHT22;26160;51.858;4.398;2022-08-21T14:12:52;24.00;99.90
40454;DHT22;26160;51.858;4.398;2022-08-21T14:15:25;24.30;99.90
40454;DHT22;26160;51.858;4.398;2022-08-21T14:17:55;24.30;99.90
40454;DHT22;26160;51.858;4.398;2022-08-21T14:20:37;24.30;99.90
40454;DHT22;26160;51.858;4.398;2022-08-21T14:23:03;24.20;99.90
40454;DHT22;26160;51.858;4.398;2022-08-21T14:25:42;24.20;99.90
40454;DHT22;26160;51.858;4.398;2022-08-21T14:28:28;24.10;99.90
40454;DHT22;26160;51.858;4.398;2022-08-21T14:30:55;24.10;99.90
40454;DHT22;26160;51.858;4.398;2022-08-21T14:33:29;24.00;99.90
40454;DHT22;26160;51.858;4.398;2022-08-21T14:35:56;24.10;99.90
40454;DHT22;26160;51.858;4.398;2022-08-21T14:38:25;24.10;99.90
40454;DHT22;26160;51.858;4.398;2022-08-21T14:40:55;24.20;99.90
40454;DHT22;26160;51.858;4.398;2022-08-21T14:43:22;24.40;99.90
40454;DHT22;26160;51.858;4.398;2022-08-21T14:45:50;24.50;99.90
40454;DHT22;26160;51.858;4.398;2022-08-21T14:48:16;24.60;99.90
40454;DHT22;26160;51.858;4.398;2022-08-21T14:50:43;24.60;99.90
40454;DHT22;26160;51.858;4.398;2022-08-21T14:53:09;24.50;99.90
40454;DHT22;26160;51.858;4.398;2022-08-21T14:55:36;24.40;99.90
40454;DHT22;26160;51.858;4.398;2022-08-21T14:58:23;24.40;99.90
40454;DHT22;26160;51.858;4.398;2022-08-21T15:00:51;24.60;99.90
40454;DHT22;26160;51.858;4.398;2022-08-21T15:03:18;24.70;99.90
40454;DHT22;26160;51.858;4.398;2022-08-21T15:05:44;24.70;99.90
40454;DHT22;26160;51.858;4.398;2022-08-21T15:08:10;24.60;99.90
40454;DHT22;26160;51.858;4.398;2022-08-21T15:10:37;24.60;99.90
40454;DHT22;26160;51.858;4.398;2022-08-21T15:13:03;24.60;99.90
40454;DHT22;26160;51.858;4.398;2022-08-21T15:15:36;24.70;99.90
40454;DHT22;26160;51.858;4.398;2022-08-21T15:18:04;24.90;99.90
40454;DHT22;26160;51.858;4.398;2022-08-21T15:20:30;24.60;99.90
40454;DHT22;26160;51.858;4.398;2022-08-21T15:22:56;24.60;99.90
40454;DHT22;26160;51.858;4.398;2022-08-21T15:25:22;24.70;99.90
40454;DHT22;26160;51.858;4.398;2022-08-21T15:27:49;24.80;99.90
40454;DHT22;26160;51.858;4.398;2022-08-21T15:30:15;24.70;99.90
40454;DHT22;26160;51.858;4.398;2022-08-21T15:32:41;24.50;99.90
40454;DHT22;26160;51.858;4.398;2022-08-21T15:35:08;24.40;99.90
40454;DHT22;26160;51.858;4.398;2022-08-21T15:37:34;24.20;99.90
40454;DHT22;26160;51.858;4.398;2022-08-21T15:40:00;24.20;99.90
40454;DHT22;26160;51.858;4.398;2022-08-21T15:42:27;24.30;99.90
40454;DHT22;26160;51.858;4.398;2022-08-21T15:44:55;24.30;99.90
40454;DHT22;26160;51.858;4.398;2022-08-21T15:47:25;24.20;99.90
40454;DHT22;26160;51.858;4.398;2022-08-21T15:49:51;24.00;99.90
40454;DHT22;26160;51.858;4.398;2022-08-21T15:52:19;24.00;99.90
40454;DHT22;26160;51.858;4.398;2022-08-21T15:54:46;24.10;99.90
40454;DHT22;26160;51.858;4.398;2022-08-21T15:57:16;23.90;99.90
40454;DHT22;26160;51.858;4.398;2022-08-21T15:59:45;23.60;99.90
40454;DHT22;26160;51.858;4.398;2022-08-21T16:02:15;23.30;99.90
40454;DHT22;26160;51.858;4.398;2022-08-21T16:04:43;23.40;99.90
40454;DHT22;26160;51.858;4.398;2022-08-21T16:07:09;23.30;99.90
40454;DHT22;26160;51.858;4.398;2022-08-21T16:09:36;23.30;99.90
40454;DHT22;26160;51.858;4.398;2022-08-21T16:12:04;23.10;99.90
40454;DHT22;26160;51.858;4.398;2022-08-21T16:14:32;23.10;99.90
40454;DHT22;26160;51.858;4.398;2022-08-21T16:17:00;23.00;99.90
40454;DHT22;26160;51.858;4.398;2022-08-21T16:19:27;23.00;99.90
40454;DHT22;26160;51.858;4.398;2022-08-21T16:21:54;23.00;99.90
40454;DHT22;26160;51.858;4.398;2022-08-21T16:24:20;23.00;99.90
40454;DHT22;26160;51.858;4.398;2022-08-21T16:26:48;23.00;99.90
40454;DHT22;26160;51.858;4.398;2022-08-21T16:29:14;22.90;99.90
40454;DHT22;26160;51.858;4.398;2022-08-21T16:31:41;22.70;99.90
40454;DHT22;26160;51.858;4.398;2022-08-21T16:34:12;22.70;99.90
40454;DHT22;26160;51.858;4.398;2022-08-21T16:36:40;22.50;99.90
40454;DHT22;26160;51.858;4.398;2022-08-21T16:39:06;22.50;99.90
40454;DHT22;26160;51.858;4.398;2022-08-21T16:41:34;22.50;99.90
40454;DHT22;26160;51.858;4.398;2022-08-21T16:44:02;22.30;99.90
40454;DHT22;26160;51.858;4.398;2022-08-21T16:46:31;22.40;99.90
40454;DHT22;26160;51.858;4.398;2022-08-21T16:48:58;22.40;99.90
40454;DHT22;26160;51.858;4.398;2022-08-21T16:51:24;22.30;99.90
40454;DHT22;26160;51.858;4.398;2022-08-21T16:53:50;22.40;99.90
40454;DHT22;26160;51.858;4.398;2022-08-21T16:56:17;22.30;99.90
40454;DHT22;26160;51.858;4.398;2022-08-21T16:58:46;22.20;99.90
40454;DHT22;26160;51.858;4.398;2022-08-21T17:01:16;22.30;99.90
40454;DHT22;26160;51.858;4.398;2022-08-21T17:03:46;22.30;99.90